Time;durP1;ratioP1;P1;durP2;ratioP2;P2;SDS_P1;SDS_P2;PMS_P1;PMS_P2;Temp;Humidity;BMP_temperature;BMP_pressure;BME280_temperature;BME280_humidity;BME280_pressure;Samples;Min_cycle;Max_cycle;Signal;HPM_P1;HPM_P2
2022/03/27 00:00:58;;;;;;;12.55;8.90;;;;;;;9.20;70.80;99936.50;1757862;81;20959;-73
2022/03/27 00:03:25;;;;;;;10.82;9.40;;;;;;;9.19;70.65;99936.62;1757959;80;21243;-72
2022/03/27 00:05:51;;;;;;;12.45;9.50;;;;;;;9.17;70.60;99930.64;1757781;81;21540;-73
2022/03/27 00:08:19;;;;;;;18.10;10.48;;;;;;;9.13;70.48;99922.98;1757954;81;21015;-72
2022/03/27 00:13:33;;;;;;;15.50;10.32;;;;;;;9.03;70.27;99923.23;1757985;81;20971;-73
2022/03/27 00:16:01;;;;;;;15.15;10.65;;;;;;;8.99;70.14;99925.66;1757822;80;21023;-73
2022/03/27 00:18:29;;;;;;;15.75;10.85;;;;;;;8.96;70.10;99926.32;1757798;81;20861;-73
2022/03/27 00:20:57;;;;;;;17.27;9.45;;;;;;;8.91;70.15;99930.09;1757804;81;20872;-72
2022/03/27 00:23:24;;;;;;;16.10;9.45;;;;;;;8.89;70.12;99935.03;1757923;81;21382;-73
2022/03/27 00:25:51;;;;;;;17.62;11.43;;;;;;;8.89;70.18;99941.56;1757933;81;20896;-72
2022/03/27 00:28:18;;;;;;;14.00;9.73;;;;;;;8.88;70.19;99940.73;1758160;80;21860;-72
2022/03/27 00:30:44;;;;;;;17.85;10.53;;;;;;;8.91;70.07;99946.23;1757828;80;20936;-72
2022/03/27 00:33:12;;;;;;;6.25;3.90;;;;;;;8.90;70.10;100025.62;1757945;81;20979;-70
2022/03/27 00:35:38;;;;;;;4.15;1.37;;;;;;;8.74;62.78;99995.68;1758359;80;20908;-71
2022/03/27 00:38:07;;;;;;;4.35;0.93;;;;;;;8.22;59.90;100045.38;1757834;81;20916;-72
2022/03/27 00:40:34;;;;;;;0.80;0.50;;;;;;;7.67;59.70;100083.84;1757897;81;21116;-72
2022/03/27 00:43:01;;;;;;;3.10;1.42;;;;;;;7.16;60.40;100071.44;1757759;81;20900;-70
2022/03/27 00:45:28;;;;;;;1.75;0.72;;;;;;;6.63;61.45;100103.38;1757893;81;21350;-73
2022/03/27 00:47:55;;;;;;;2.87;0.62;;;;;;;6.15;62.99;100116.19;1757902;81;21343;-72
2022/03/27 00:50:22;;;;;;;5.25;2.90;;;;;;;5.82;64.63;100131.66;1757972;81;20956;-73
2022/03/27 00:52:49;;;;;;;0.72;0.53;;;;;;;5.54;65.57;100146.46;1757886;81;21239;-72
2022/03/27 00:55:15;;;;;;;1.52;1.07;;;;;;;5.32;66.24;100160.91;1757781;81;20873;-72
2022/03/27 00:57:43;;;;;;;1.20;0.45;;;;;;;5.17;67.08;100177.57;1757891;81;20980;-73
2022/03/27 01:00:15;;;;;;;1.47;0.40;;;;;;;5.07;67.92;100185.41;1758042;81;21414;-71
2022/03/27 01:02:43;;;;;;;1.95;0.50;;;;;;;4.96;68.40;100196.27;1757555;81;20897;-72
2022/03/27 01:05:13;;;;;;;0.88;0.60;;;;;;;4.85;68.97;100214.08;1757815;81;22080;-71
2022/03/27 01:07:40;;;;;;;2.12;0.62;;;;;;;4.78;69.06;100217.85;1757824;81;20928;-71
2022/03/27 01:10:08;;;;;;;0.78;0.33;;;;;;;4.71;69.03;100209.91;1757943;80;21410;-70
2022/03/27 01:12:39;;;;;;;1.25;0.80;;;;;;;4.59;68.86;100230.75;1757886;81;20951;-70
2022/03/27 01:15:26;;;;;;;1.22;0.28;;;;;;;4.48;68.96;100234.25;1757866;81;20880;-71
2022/03/27 01:17:52;;;;;;;2.55;0.30;;;;;;;4.38;69.04;100227.73;1721922;82;21088;-71
2022/03/27 01:20:35;;;;;;;0.30;0.30;;;;;;;4.27;69.21;100234.22;1721794;83;20899;-71
2022/03/27 01:23:02;;;;;;;0.35;0.20;;;;;;;4.25;69.30;100231.30;1721808;82;21478;-70
2022/03/27 01:25:30;;;;;;;1.12;0.35;;;;;;;4.22;69.79;100215.37;1721795;83;20915;-70
2022/03/27 01:27:57;;;;;;;0.37;0.30;;;;;;;4.25;69.99;100207.48;1721886;83;20864;-71
2022/03/27 01:30:23;;;;;;;1.72;0.80;;;;;;;4.29;70.35;100205.16;1721814;83;21304;-70
2022/03/27 01:32:53;;;;;;;0.98;0.42;;;;;;;4.36;70.33;100211.78;1721808;83;21014;-70
2022/03/27 01:35:20;;;;;;;3.12;0.53;;;;;;;4.40;70.36;100209.88;1722182;82;20942;-70
2022/03/27 01:37:47;;;;;;;0.53;0.50;;;;;;;4.45;70.20;100201.47;1721767;83;21030;-70
2022/03/27 01:40:14;;;;;;;4.00;0.60;;;;;;;4.45;69.76;100205.83;1719955;83;20935;-69
2022/03/27 01:42:40;;;;;;;1.55;0.62;;;;;;;4.42;69.78;100211.96;1716555;83;21119;-71
2022/03/27 01:45:08;;;;;;;2.72;0.68;;;;;;;4.39;69.72;100201.72;1719298;81;20957;-71
2022/03/27 01:47:34;;;;;;;2.12;0.70;;;;;;;4.35;69.68;100190.60;1744287;82;20976;-70
2022/03/27 01:50:01;;;;;;;1.25;0.62;;;;;;;4.34;69.80;100194.58;1744116;82;20959;-69
2022/03/27 01:54:00;;;;;;;1.22;0.60;;;;;;;4.36;70.09;100192.77;1816392;78;22217;-69
2022/03/27 01:56:27;;;;;;;1.22;0.98;;;;;;;4.32;70.18;100188.61;1789556;80;20920;-70
2022/03/27 01:58:54;;;;;;;1.67;0.88;;;;;;;4.35;70.36;100186.71;1789462;80;21664;-69
2022/03/27 02:01:21;;;;;;;0.80;0.62;;;;;;;4.41;70.31;100174.41;1789484;80;20884;-71
2022/03/27 02:03:48;;;;;;;0.40;0.40;;;;;;;4.42;70.45;100184.70;1789532;80;20974;-70
2022/03/27 02:06:16;;;;;;;2.80;0.80;;;;;;;4.43;70.47;100186.41;1789422;80;20888;-71
2022/03/27 02:08:44;;;;;;;1.80;0.85;;;;;;;4.46;70.45;100190.63;1789428;80;21425;-71
2022/03/27 02:11:10;;;;;;;3.33;0.65;;;;;;;4.46;70.42;100201.02;1789814;79;21692;-70
2022/03/27 02:13:38;;;;;;;4.42;0.90;;;;;;;4.44;70.43;100200.23;1789460;80;20876;-71
2022/03/27 02:16:05;;;;;;;2.77;0.93;;;;;;;4.44;70.38;100193.73;1789937;80;20975;-71
2022/03/27 02:18:31;;;;;;;7.60;1.10;;;;;;;4.43;70.37;100197.25;1790491;80;21380;-70
2022/03/27 02:21:00;;;;;;;1.87;1.22;;;;;;;4.41;70.55;100194.72;1789649;80;21001;-71
2022/03/27 02:23:28;;;;;;;2.50;1.25;;;;;;;4.39;70.66;100196.52;1789427;80;21796;-72
2022/03/27 02:25:55;;;;;;;2.22;1.22;;;;;;;4.40;70.80;100193.47;1789352;79;20912;-71
2022/03/27 02:28:22;;;;;;;2.50;1.02;;;;;;;4.45;71.01;100198.88;1789498;80;20908;-71
2022/03/27 02:30:48;;;;;;;4.72;2.02;;;;;;;4.50;71.02;100201.28;1789464;80;21531;-71
2022/03/27 02:33:16;;;;;;;1.57;0.90;;;;;;;4.55;71.00;100202.76;1789821;80;20978;-72
2022/03/27 02:35:45;;;;;;;1.37;0.93;;;;;;;4.62;70.76;100208.54;1789449;80;20975;-72
2022/03/27 02:38:12;;;;;;;2.37;0.85;;;;;;;4.66;70.44;100215.76;1789434;80;20907;-71
2022/03/27 02:40:42;;;;;;;1.55;1.05;;;;;;;4.66;70.24;100218.36;1789712;80;20868;-71
2022/03/27 02:43:11;;;;;;;3.58;1.07;;;;;;;4.63;70.00;100223.69;1789349;80;20904;-71
2022/03/27 02:45:39;;;;;;;3.40;1.30;;;;;;;4.61;69.83;100230.23;1789536;79;21498;-71
2022/03/27 02:48:06;;;;;;;7.53;2.00;;;;;;;4.57;69.53;100228.21;1789692;80;21069;-71
2022/03/27 02:50:37;;;;;;;6.17;2.47;;;;;;;4.54;69.58;100227.52;1789323;80;21022;-71
2022/03/27 02:53:04;;;;;;;7.53;2.72;;;;;;;4.51;69.41;100227.63;1782910;80;20920;-71
2022/03/27 02:55:31;;;;;;;7.40;3.47;;;;;;;4.47;69.31;100226.92;1775789;80;20857;-71
2022/03/27 02:57:58;;;;;;;14.03;4.28;;;;;;;4.42;69.39;100224.11;1775947;80;20919;-71
2022/03/27 03:00:25;;;;;;;6.67;3.75;;;;;;;4.37;69.48;100224.30;1776067;80;21097;-71
2022/03/27 03:02:53;;;;;;;7.80;3.85;;;;;;;4.32;69.28;100221.89;1776165;80;20932;-71
2022/03/27 03:05:21;;;;;;;5.28;3.27;;;;;;;4.28;69.15;100232.46;1775437;80;20885;-71
2022/03/27 03:07:48;;;;;;;8.30;2.35;;;;;;;4.24;69.23;100230.43;1775433;80;20924;-72
2022/03/27 03:10:17;;;;;;;3.15;2.10;;;;;;;4.20;69.00;100233.21;1775353;80;20936;-71
2022/03/27 03:12:44;;;;;;;6.42;1.50;;;;;;;4.15;69.01;100227.75;1775339;80;21163;-70
2022/03/27 03:15:13;;;;;;;3.98;1.12;;;;;;;4.13;69.02;100242.53;1775270;80;21525;-72
2022/03/27 03:17:40;;;;;;;4.72;1.20;;;;;;;4.11;69.13;100239.18;1775824;80;20955;-71
2022/03/27 03:20:09;;;;;;;3.37;0.60;;;;;;;4.09;69.33;100247.48;1775374;80;20912;-71
2022/03/27 03:22:40;;;;;;;2.30;0.68;;;;;;;4.06;69.62;100244.14;1775288;80;20881;-71
2022/03/27 03:25:08;;;;;;;3.27;1.27;;;;;;;4.01;70.01;100250.81;1775679;80;21119;-72
2022/03/27 03:27:36;;;;;;;3.70;0.47;;;;;;;4.01;70.07;100258.59;1775257;80;20932;-71
2022/03/27 03:30:06;;;;;;;2.02;0.65;;;;;;;3.99;70.02;100257.80;1775238;80;20983;-70
2022/03/27 03:32:36;;;;;;;3.87;1.22;;;;;;;3.95;69.84;100258.36;1775475;80;20959;-71
2022/03/27 03:35:07;;;;;;;5.25;0.78;;;;;;;3.90;69.67;100265.48;1775391;80;20980;-71
2022/03/27 03:37:34;;;;;;;4.03;0.72;;;;;;;3.88;69.39;100269.05;1775308;80;21127;-72
2022/03/27 03:40:02;;;;;;;3.30;0.60;;;;;;;3.84;69.14;100276.09;1775464;80;20861;-71
2022/03/27 03:42:30;;;;;;;0.95;0.40;;;;;;;3.81;68.74;100276.22;1775240;80;20932;-71
2022/03/27 03:44:56;;;;;;;3.92;0.60;;;;;;;3.79;68.58;100281.07;1775327;80;20900;-72
2022/03/27 03:47:23;;;;;;;2.17;0.70;;;;;;;3.74;68.66;100287.73;1775579;80;21022;-72
2022/03/27 03:49:49;;;;;;;2.77;0.68;;;;;;;3.73;68.64;100288.61;1775220;80;21059;-71
2022/03/27 03:52:16;;;;;;;2.08;0.42;;;;;;;3.70;68.38;100284.84;1775092;80;20916;-71
2022/03/27 03:54:44;;;;;;;1.65;0.70;;;;;;;3.66;68.38;100290.59;1775370;80;20928;-71
2022/03/27 03:57:10;;;;;;;2.65;0.65;;;;;;;3.64;68.49;100292.84;1775225;80;21076;-71
2022/03/27 03:59:39;;;;;;;5.67;0.55;;;;;;;3.63;68.26;100295.06;1775223;80;20873;-72
2022/03/27 04:02:06;;;;;;;4.95;0.50;;;;;;;3.60;67.80;100293.86;1775582;80;21120;-72
2022/03/27 04:04:34;;;;;;;3.75;0.75;;;;;;;3.57;67.46;100295.27;1775186;80;21386;-71
2022/03/27 04:07:01;;;;;;;1.35;0.47;;;;;;;3.52;67.44;100297.58;1775251;80;20841;-71
2022/03/27 04:09:28;;;;;;;4.60;1.15;;;;;;;3.51;67.17;100307.99;1775313;80;21422;-72
2022/03/27 04:11:54;;;;;;;2.37;0.70;;;;;;;3.50;67.07;100307.61;1775248;80;21015;-72
2022/03/27 04:14:21;;;;;;;5.65;1.87;;;;;;;3.55;67.05;100308.73;1775610;80;21246;-71
2022/03/27 04:16:48;;;;;;;3.33;0.50;;;;;;;3.67;66.50;100316.09;1775458;80;20880;-72
2022/03/27 04:19:15;;;;;;;4.92;0.62;;;;;;;3.83;66.29;100312.48;1775245;80;20904;-71
2022/03/27 04:21:42;;;;;;;3.80;0.42;;;;;;;3.97;65.72;100314.09;1775564;80;20944;-72
2022/03/27 04:24:09;;;;;;;4.20;0.65;;;;;;;4.12;65.27;100319.16;1775484;80;21489;-73
2022/03/27 04:26:39;;;;;;;2.50;0.57;;;;;;;4.30;64.69;100310.66;1775237;80;21639;-72
2022/03/27 04:29:05;;;;;;;5.12;0.90;;;;;;;4.44;64.15;100319.66;1775436;80;20932;-72
2022/03/27 04:31:32;;;;;;;1.55;0.30;;;;;;;4.49;62.48;100319.88;1775319;80;21406;-72
2022/03/27 04:33:59;;;;;;;4.47;0.60;;;;;;;4.59;62.33;100322.94;1775244;80;20932;-72
2022/03/27 04:36:27;;;;;;;2.20;0.62;;;;;;;4.67;62.09;100317.00;1775336;80;21457;-71
2022/03/27 04:38:55;;;;;;;2.22;0.85;;;;;;;4.76;61.44;100325.70;1775766;80;21137;-72
2022/03/27 04:41:21;;;;;;;2.83;0.70;;;;;;;4.88;60.98;100335.20;1775153;80;20877;-72
2022/03/27 04:43:48;;;;;;;2.77;0.85;;;;;;;5.02;60.39;100338.53;1775274;80;20916;-73
2022/03/27 04:46:16;;;;;;;3.12;0.53;;;;;;;5.25;59.46;100337.58;1775153;80;20939;-72
2022/03/27 04:48:43;;;;;;;4.25;0.85;;;;;;;5.57;58.40;100338.78;1775497;80;21454;-72
2022/03/27 04:51:10;;;;;;;1.92;0.57;;;;;;;6.07;57.19;100342.65;1775178;80;21760;-71
2022/03/27 04:53:37;;;;;;;2.55;0.80;;;;;;;6.53;54.92;100342.65;1778893;80;20955;-71
2022/03/27 04:56:05;;;;;;;3.17;0.60;;;;;;;6.91;54.62;100352.98;1784099;80;21022;-71
2022/03/27 04:58:32;;;;;;;2.42;0.53;;;;;;;7.29;51.78;100353.30;1783864;80;21011;-73
2022/03/27 05:00:59;;;;;;;2.35;0.50;;;;;;;7.64;51.28;100346.27;1783881;80;21381;-74
2022/03/27 05:03:26;;;;;;;2.62;0.37;;;;;;;8.09;50.11;100338.21;1783704;80;21632;-72
2022/03/27 05:05:54;;;;;;;1.92;0.50;;;;;;;8.56;49.16;100340.03;1783803;80;20873;-72
2022/03/27 05:08:21;;;;;;;2.12;0.60;;;;;;;8.96;47.85;100337.77;1783812;80;20927;-73
2022/03/27 05:10:49;;;;;;;3.65;0.90;;;;;;;9.40;47.34;100348.67;1783769;80;20904;-73
2022/03/27 05:13:17;;;;;;;1.32;0.50;;;;;;;9.87;45.15;100342.37;1784177;80;20967;-72
2022/03/27 05:15:45;;;;;;;2.25;0.55;;;;;;;10.17;43.96;100340.08;1783918;80;21926;-74
2022/03/27 05:18:12;;;;;;;1.52;0.50;;;;;;;10.40;43.70;100356.98;1783656;80;20932;-72
2022/03/27 05:20:41;;;;;;;2.42;0.50;;;;;;;10.75;41.99;100366.53;1784129;80;20868;-72
2022/03/27 05:23:08;;;;;;;1.40;0.40;;;;;;;10.95;40.33;100363.91;1783588;80;20920;-71
2022/03/27 05:25:40;;;;;;;2.58;0.60;;;;;;;11.05;41.43;100368.11;1783756;80;20979;-70
2022/03/27 05:28:05;;;;;;;2.02;0.55;;;;;;;11.18;40.67;100366.80;1783397;80;21216;-72
2022/03/27 05:30:32;;;;;;;2.80;0.35;;;;;;;11.18;39.54;100375.98;1783596;80;21364;-72
2022/03/27 05:32:59;;;;;;;1.60;0.30;;;;;;;10.98;39.46;100378.17;1784025;80;21423;-71
2022/03/27 05:35:27;;;;;;;4.87;0.95;;;;;;;10.83;39.72;100373.05;1784041;80;21465;-73
2022/03/27 05:37:54;;;;;;;0.60;0.40;;;;;;;10.65;39.46;100382.95;1783804;80;20986;-72
2022/03/27 05:40:22;;;;;;;2.95;0.50;;;;;;;10.74;40.40;100383.22;1784086;80;21092;-72
2022/03/27 05:42:50;;;;;;;2.02;0.57;;;;;;;10.94;39.30;100400.30;1783747;80;20861;-72
2022/03/27 05:45:18;;;;;;;3.42;0.50;;;;;;;10.75;38.89;100385.37;1783811;80;21034;-75
2022/03/27 05:47:44;;;;;;;2.15;0.55;;;;;;;10.30;39.73;100393.44;1784043;80;20892;-72
2022/03/27 05:50:16;;;;;;;7.05;0.80;;;;;;;9.92;39.52;100393.98;1784026;80;20848;-72
2022/03/27 05:52:43;;;;;;;2.05;0.45;;;;;;;9.69;40.46;100399.32;1783731;80;21147;-75
2022/03/27 05:55:12;;;;;;;4.42;0.50;;;;;;;9.43;41.06;100410.02;1775429;80;20936;-73
2022/03/27 05:57:40;;;;;;;2.75;0.70;;;;;;;9.16;41.10;100425.98;1775118;80;20932;-74
2022/03/27 06:00:09;;;;;;;1.62;0.55;;;;;;;8.86;42.10;100421.58;1775110;80;20881;-73
2022/03/27 06:02:36;;;;;;;2.45;0.30;;;;;;;8.64;42.18;100429.77;1775123;80;21349;-74
2022/03/27 06:05:05;;;;;;;2.25;0.50;;;;;;;8.41;42.78;100433.64;1775201;80;21424;-73
2022/03/27 06:07:32;;;;;;;3.65;0.40;;;;;;;8.29;43.15;100437.70;1775068;80;21407;-72
2022/03/27 06:09:59;;;;;;;4.70;0.60;;;;;;;8.18;43.15;100440.05;1775203;80;20924;-74
2022/03/27 06:12:26;;;;;;;0.90;0.30;;;;;;;8.05;43.64;100443.32;1775079;80;20861;-74
2022/03/27 06:14:54;;;;;;;2.10;0.72;;;;;;;7.94;43.43;100446.95;1775513;80;21393;-73
2022/03/27 06:17:21;;;;;;;2.00;0.37;;;;;;;7.76;43.87;100456.58;1775242;80;21153;-73
2022/03/27 06:19:49;;;;;;;2.98;0.50;;;;;;;7.50;43.79;100457.05;1775146;80;20939;-74
2022/03/27 06:22:16;;;;;;;3.58;1.05;;;;;;;7.21;45.29;100449.73;1775140;80;20924;-73
2022/03/27 06:24:43;;;;;;;1.45;0.57;;;;;;;7.01;44.76;100458.98;1775130;80;20897;-73
2022/03/27 06:27:09;;;;;;;1.70;0.40;;;;;;;6.79;46.42;100461.28;1775206;80;20974;-74
2022/03/27 06:29:36;;;;;;;3.55;1.02;;;;;;;6.68;46.82;100464.85;1775898;80;21236;-74
2022/03/27 06:32:05;;;;;;;4.22;0.47;;;;;;;6.59;47.11;100483.05;1775710;80;20928;-75
2022/03/27 06:34:32;;;;;;;3.00;0.30;;;;;;;6.49;47.32;100479.20;1775126;80;20905;-75
2022/03/27 06:36:59;;;;;;;0.50;0.30;;;;;;;6.43;46.56;100480.77;1775117;80;21007;-74
2022/03/27 06:39:26;;;;;;;1.98;0.80;;;;;;;6.39;46.74;100493.07;1775381;80;20928;-73
2022/03/27 06:41:53;;;;;;;3.25;0.50;;;;;;;6.35;46.39;100486.77;1775279;80;21234;-74
2022/03/27 06:44:20;;;;;;;2.67;0.40;;;;;;;6.26;46.46;100500.20;1775303;80;20857;-74
2022/03/27 06:46:49;;;;;;;3.72;1.05;;;;;;;6.14;46.38;100498.52;1775320;80;21339;-74
2022/03/27 06:49:17;;;;;;;3.35;0.40;;;;;;;6.11;46.92;100499.10;1775354;80;20992;-73
2022/03/27 06:51:45;;;;;;;1.30;0.40;;;;;;;6.11;47.02;100508.21;1775239;80;21445;-74
2022/03/27 06:54:13;;;;;;;1.30;0.40;;;;;;;6.13;46.67;100499.42;1775498;80;21402;-75
2022/03/27 06:56:42;;;;;;;2.67;0.20;;;;;;;6.22;47.21;100501.65;1775326;80;20928;-74
2022/03/27 06:59:09;;;;;;;1.00;0.30;;;;;;;6.39;47.09;100503.95;1775382;80;21515;-75
2022/03/27 07:04:22;;;;;;;2.70;1.87;;;;;;;7.10;46.59;100494.20;1775570;80;20984;-75
2022/03/27 07:06:51;;;;;;;1.05;0.40;;;;;;;7.44;45.84;100493.40;1775349;80;21311;-74
2022/03/27 07:09:19;;;;;;;1.92;0.68;;;;;;;7.48;45.55;100511.91;1775194;80;20849;-73
2022/03/27 07:11:47;;;;;;;2.60;0.93;;;;;;;7.28;45.25;100511.56;1775700;80;20900;-74
2022/03/27 07:14:14;;;;;;;2.37;0.72;;;;;;;6.95;45.68;100528.34;1775220;80;21007;-74
2022/03/27 07:16:43;;;;;;;3.30;0.20;;;;;;;6.61;46.68;100559.39;1775235;80;20895;-74
2022/03/27 07:19:10;;;;;;;0.70;0.40;;;;;;;6.30;46.11;100560.36;1775522;80;21120;-74
2022/03/27 07:21:38;;;;;;;3.05;0.33;;;;;;;6.00;46.68;100552.92;1775271;80;20936;-74
2022/03/27 07:24:07;;;;;;;0.93;0.80;;;;;;;5.70;47.15;100555.02;1775241;80;20928;-73
2022/03/27 07:26:35;;;;;;;0.98;0.60;;;;;;;5.54;48.12;100560.84;1775422;80;21504;-74
2022/03/27 07:29:04;;;;;;;2.72;0.30;;;;;;;5.57;48.52;100557.27;1775348;80;20939;-73
2022/03/27 07:31:33;;;;;;;2.72;0.30;;;;;;;5.71;48.49;100569.70;1775368;80;22216;-75
2022/03/27 07:34:01;;;;;;;0.20;0.20;;;;;;;6.03;47.17;100563.22;1775188;80;20892;-72
2022/03/27 07:36:30;;;;;;;2.50;0.40;;;;;;;6.25;46.96;100565.77;1768618;80;20935;-73
2022/03/27 07:38:58;;;;;;;2.35;0.20;;;;;;;6.20;47.06;100561.19;1775432;80;20936;-74
2022/03/27 07:41:25;;;;;;;0.75;0.10;;;;;;;6.04;47.07;100549.75;1775268;80;20983;-73
2022/03/27 07:43:52;;;;;;;0.88;0.40;;;;;;;5.98;47.09;100569.92;1775405;80;21297;-75
2022/03/27 07:46:20;;;;;;;1.85;0.40;;;;;;;6.00;47.69;100573.75;1775228;80;20856;-74
2022/03/27 07:48:48;;;;;;;0.40;0.30;;;;;;;5.99;47.47;100566.40;1775302;80;20936;-74
2022/03/27 07:51:16;;;;;;;0.40;0.30;;;;;;;6.14;47.56;100557.11;1775273;80;20901;-74
2022/03/27 07:53:43;;;;;;;0.20;0.20;;;;;;;6.51;47.54;100555.95;1775881;80;21410;-73
2022/03/27 07:56:12;;;;;;;5.50;0.40;;;;;;;6.94;46.51;100547.52;1783949;80;21295;-73
2022/03/27 07:58:39;;;;;;;0.50;0.30;;;;;;;7.50;45.66;100555.73;1783532;80;20914;-74
2022/03/27 08:01:07;;;;;;;0.72;0.40;;;;;;;7.87;44.60;100557.39;1783613;80;20943;-73
2022/03/27 08:03:37;;;;;;;10.58;6.65;;;;;;;8.02;43.16;100563.59;1783637;80;21536;-73
2022/03/27 08:06:04;;;;;;;1.27;0.50;;;;;;;7.93;42.02;100552.77;1783622;80;21030;-75
2022/03/27 08:08:32;;;;;;;0.80;0.30;;;;;;;7.57;41.92;100548.45;1783522;80;21169;-73
2022/03/27 08:10:59;;;;;;;1.90;0.30;;;;;;;7.19;42.19;100558.95;1783808;80;21053;-73
2022/03/27 08:13:26;;;;;;;0.98;0.30;;;;;;;6.89;42.42;100559.44;1783440;80;20896;-74
2022/03/27 08:15:54;;;;;;;0.75;0.30;;;;;;;6.68;43.59;100569.55;1783441;80;20971;-73
2022/03/27 08:18:21;;;;;;;0.80;0.20;;;;;;;6.44;43.73;100580.13;1783982;80;20861;-74
2022/03/27 08:20:50;;;;;;;0.78;0.30;;;;;;;6.22;43.26;100586.27;1783515;80;21613;-73
2022/03/27 08:23:22;;;;;;;1.45;0.47;;;;;;;5.89;42.93;100598.91;1783406;80;20907;-73
2022/03/27 08:28:36;;;;;;;1.65;0.23;;;;;;;5.48;44.14;100612.26;1783717;80;21536;-74
2022/03/27 08:31:05;;;;;;;1.37;0.75;;;;;;;5.26;45.49;100618.73;1783514;80;20931;-75
2022/03/27 08:33:32;;;;;;;0.72;0.30;;;;;;;5.07;46.54;100616.84;1783389;80;21262;-75
2022/03/27 08:36:01;;;;;;;0.30;0.30;;;;;;;4.96;47.49;100613.33;1765870;80;20900;-74
2022/03/27 08:38:29;;;;;;;0.75;0.40;;;;;;;4.86;47.74;100608.52;1783465;80;20892;-73
2022/03/27 08:40:56;;;;;;;0.60;0.30;;;;;;;4.83;48.28;100604.29;1783681;80;20951;-75
2022/03/27 08:43:23;;;;;;;2.95;0.33;;;;;;;4.92;49.06;100602.65;1783846;80;20856;-75
2022/03/27 08:45:51;;;;;;;0.72;0.37;;;;;;;5.05;48.78;100613.44;1783401;80;21797;-73
2022/03/27 08:48:19;;;;;;;1.05;0.25;;;;;;;5.27;48.10;100611.31;1783302;80;20979;-73
2022/03/27 08:51:07;;;;;;;0.68;0.20;;;;;;;5.62;47.16;100602.14;1778622;80;20986;-74
2022/03/27 08:54:03;;;;;;;0.98;0.45;;;;;;;6.26;45.95;100616.08;1752830;80;21038;-73
2022/03/27 08:56:33;;;;;;;0.30;0.10;;;;;;;7.21;43.80;100617.95;1781288;80;20919;-73
2022/03/27 08:59:09;;;;;;;0.95;0.30;;;;;;;8.05;39.42;100605.70;1783464;80;21136;-75
2022/03/27 09:01:38;;;;;;;1.95;0.47;;;;;;;8.24;37.71;100612.98;1752883;80;20971;-72
2022/03/27 09:04:05;;;;;;;4.92;0.50;;;;;;;8.03;37.91;100628.44;1753419;80;20872;-74
2022/03/27 09:06:34;;;;;;;1.72;0.30;;;;;;;7.66;37.77;100616.69;1783580;80;20900;-75
2022/03/27 09:09:01;;;;;;;1.37;0.20;;;;;;;7.64;36.41;100609.39;1783487;80;20883;-74
2022/03/27 09:11:30;;;;;;;4.42;0.33;;;;;;;7.64;35.75;100630.73;1783875;80;20908;-75
2022/03/27 09:13:58;;;;;;;4.60;0.50;;;;;;;7.53;35.59;100635.62;1778568;80;20940;-74
2022/03/27 09:16:25;;;;;;;3.45;0.50;;;;;;;7.57;35.53;100624.97;1784096;80;21004;-74
2022/03/27 09:18:57;;;;;;;0.62;0.10;;;;;;;7.89;35.88;100648.67;1783543;80;20892;-75
2022/03/27 09:21:29;;;;;;;0.30;0.30;;;;;;;8.19;35.39;100638.50;1783717;80;20983;-74
2022/03/27 09:24:01;;;;;;;1.72;0.30;;;;;;;8.36;33.68;100647.25;1783770;80;20932;-73
2022/03/27 09:26:32;;;;;;;2.90;0.57;;;;;;;8.57;32.50;100644.06;1783378;80;20913;-73
2022/03/27 09:29:12;;;;;;;7.08;0.60;;;;;;;8.76;33.49;100629.55;1783538;80;20896;-74
2022/03/27 09:31:39;;;;;;;2.58;0.20;;;;;;;8.92;31.89;100640.45;1783564;80;20900;-73
2022/03/27 09:34:07;;;;;;;3.33;0.25;;;;;;;9.03;31.40;100641.66;1783536;80;21043;-73
2022/03/27 09:36:42;;;;;;;5.00;0.33;;;;;;;8.97;32.44;100661.13;1783784;80;21257;-75
2022/03/27 09:39:18;;;;;;;2.77;0.60;;;;;;;9.10;32.41;100646.47;1783472;80;20841;-75
2022/03/27 09:41:50;;;;;;;1.07;0.50;;;;;;;9.07;31.66;100647.09;1783669;80;20979;-75
2022/03/27 09:44:36;;;;;;;2.50;0.37;;;;;;;9.02;31.65;100659.58;1783506;80;21319;-74
2022/03/27 09:47:05;;;;;;;;;;;;;;;8.85;30.90;100651.33;1786206;80;20857;-74
2022/03/27 09:49:41;;;;;;;1.12;0.30;;;;;;;8.62;31.02;100667.72;1783699;80;21151;-75
2022/03/27 09:52:16;;;;;;;;;;;;;;;8.36;31.10;100670.33;1786138;80;20936;-74
2022/03/27 09:54:58;;;;;;;8.08;0.57;;;;;;;8.23;31.49;100661.41;1781609;80;20129;-74
2022/03/27 09:57:33;;;;;;;1.75;0.30;;;;;;;8.20;31.87;100675.91;1775384;80;20932;-74
2022/03/27 10:00:16;;;;;;;1.75;0.30;;;;;;;8.27;32.74;100667.71;1775326;80;21418;-74
2022/03/27 10:02:44;;;;;;;6.55;0.55;;;;;;;8.20;32.10;100685.89;1775263;80;21255;-74
2022/03/27 10:05:13;;;;;;;3.17;0.30;;;;;;;8.10;31.93;100693.81;1775111;80;21395;-75
2022/03/27 10:07:49;;;;;;;1.37;0.20;;;;;;;7.95;31.95;100689.33;1775451;80;20900;-75
2022/03/27 10:10:24;;;;;;;4.58;0.40;;;;;;;7.97;31.81;100696.16;1775198;80;21457;-75
2022/03/27 10:12:57;;;;;;;4.10;0.40;;;;;;;7.94;31.96;100687.61;1775228;80;21560;-74
2022/03/27 10:15:30;;;;;;;4.55;0.68;;;;;;;7.86;32.37;100707.11;1775360;80;21145;-74
2022/03/27 10:18:03;;;;;;;2.05;0.40;;;;;;;7.82;32.02;100709.94;1774776;80;20920;-75
2022/03/27 10:20:36;;;;;;;2.40;0.30;;;;;;;7.94;32.79;100696.32;1775688;80;21393;-74
2022/03/27 10:23:10;;;;;;;35.65;22.77;;;;;;;8.10;32.12;100714.70;1775296;80;20912;-75
2022/03/27 10:25:41;;;;;;;14.95;6.25;;;;;;;8.16;31.56;100702.66;1775432;80;20983;-76
2022/03/27 10:28:09;;;;;;;13.00;1.55;;;;;;;8.03;31.10;100686.73;1775387;80;21417;-73
2022/03/27 10:30:38;;;;;;;4.42;1.67;;;;;;;7.94;31.32;100719.82;1775401;80;20960;-74
2022/03/27 10:33:07;;;;;;;3.08;1.20;;;;;;;7.96;31.38;100721.90;1775307;80;20987;-74
2022/03/27 10:35:49;;;;;;;3.98;0.60;;;;;;;8.07;30.83;100743.56;1775608;80;21391;-75
2022/03/27 10:39:02;;;;;;;4.70;0.40;;;;;;;8.06;30.65;100737.97;1775629;80;20975;-72
2022/03/27 10:41:42;;;;;;;6.25;1.25;;;;;;;7.87;30.75;100737.54;1775206;80;22095;-75
2022/03/27 10:44:30;;;;;;;1.27;0.40;;;;;;;7.74;31.22;100752.55;1775479;80;20873;-75
2022/03/27 10:47:12;;;;;;;1.30;0.80;;;;;;;7.81;31.63;100745.65;1775308;80;21534;-75
2022/03/27 10:50:08;;;;;;;6.42;0.53;;;;;;;8.05;32.04;100729.30;1770040;80;20889;-74
2022/03/27 10:52:54;;;;;;;1.37;0.50;;;;;;;8.22;31.23;100750.67;1770653;80;20987;-75
2022/03/27 10:55:25;;;;;;;3.30;0.60;;;;;;;8.18;31.91;100742.63;1778241;80;21142;-74
2022/03/27 10:57:54;;;;;;;7.00;0.40;;;;;;;8.04;31.78;100747.64;1783817;80;20892;-74
2022/03/27 11:00:41;;;;;;;1.07;0.23;;;;;;;7.83;31.85;100764.70;1755783;80;20939;-74
2022/03/27 11:03:08;;;;;;;4.15;0.30;;;;;;;7.65;32.32;100766.86;1783914;80;21449;-75
2022/03/27 11:05:41;;;;;;;1.27;0.20;;;;;;;7.38;32.73;100759.36;1781051;80;20947;-75
2022/03/27 11:08:26;;;;;;;6.08;0.20;;;;;;;7.21;33.09;100754.03;1783886;80;21764;-75
2022/03/27 11:10:59;;;;;;;1.57;0.33;;;;;;;7.01;33.28;100753.13;1784066;80;21330;-73
2022/03/27 11:13:31;;;;;;;2.55;0.33;;;;;;;6.92;33.75;100760.05;1756160;80;20943;-75
2022/03/27 11:16:08;;;;;;;4.50;0.50;;;;;;;6.78;34.40;100774.97;1783952;80;20900;-74
2022/03/27 11:18:39;;;;;;;3.30;0.62;;;;;;;6.68;34.62;100768.44;1784010;80;21488;-75
2022/03/27 11:21:07;;;;;;;5.53;0.60;;;;;;;6.63;35.48;100773.84;1784073;80;21804;-73
2022/03/27 11:23:38;;;;;;;6.17;0.82;;;;;;;6.64;35.23;100782.03;1783900;80;21476;-74
2022/03/27 11:26:22;;;;;;;4.70;0.30;;;;;;;6.62;34.87;100769.98;1783953;80;20935;-74
2022/03/27 11:28:58;;;;;;;6.53;0.53;;;;;;;6.55;35.28;100771.99;1783723;80;20951;-73
2022/03/27 11:31:38;;;;;;;1.35;0.30;;;;;;;6.59;34.98;100777.47;1783805;80;21413;-75
2022/03/27 11:34:17;;;;;;;2.62;0.40;;;;;;;6.57;35.84;100831.87;1781330;80;21803;-73
2022/03/27 11:36:48;;;;;;;0.40;0.40;;;;;;;6.33;37.24;100807.63;1783709;80;20951;-74
2022/03/27 11:39:34;;;;;;;5.17;0.50;;;;;;;6.13;38.25;100800.59;1783888;80;20986;-74
2022/03/27 11:42:31;;;;;;;6.50;0.90;;;;;;;6.04;38.50;100795.28;1755327;80;21041;-74
2022/03/27 11:45:17;;;;;;;13.58;1.00;;;;;;;6.03;38.85;100806.63;1781447;80;20881;-76
2022/03/27 11:47:47;;;;;;;8.50;0.57;;;;;;;5.94;38.86;100809.12;1755506;80;21882;-74
2022/03/27 11:50:28;;;;;;;3.45;0.50;;;;;;;5.87;38.37;100805.02;1783689;80;21511;-73
2022/03/27 11:52:57;;;;;;;5.60;0.80;;;;;;;5.90;38.29;100800.98;1755453;80;20944;-74
2022/03/27 11:55:30;;;;;;;11.10;1.02;;;;;;;6.00;38.14;100816.70;1783691;80;20959;-74